createdAt,value
2023-05-14T00:02:24.746Z,25.29
2023-05-14T00:04:53.860Z,24.85
2023-05-14T00:07:22.040Z,24.92
2023-05-14T00:09:51.617Z,24.78
2023-05-14T00:12:19.890Z,25.27
2023-05-14T00:14:48.106Z,24.52
2023-05-14T00:17:16.288Z,24.39
2023-05-14T00:19:44.688Z,24.81
2023-05-14T00:22:12.926Z,24.51
2023-05-14T00:24:41.331Z,24.26
2023-05-14T00:27:10.951Z,24.37
2023-05-14T00:29:39.174Z,24.25
2023-05-14T00:32:08.179Z,24.44
2023-05-14T00:34:36.636Z,24.50
2023-05-14T00:37:04.975Z,24.63
2023-05-14T00:39:33.236Z,25.08
2023-05-14T00:42:01.477Z,24.42
2023-05-14T00:44:31.076Z,24.91
2023-05-14T00:46:59.800Z,24.36
2023-05-14T00:49:28.726Z,23.93
2023-05-14T00:51:59.033Z,24.52
2023-05-14T00:54:27.509Z,24.49
2023-05-14T00:56:56.129Z,24.57
2023-05-14T00:59:24.330Z,23.99
2023-05-14T01:01:54.108Z,24.75
2023-05-14T01:04:22.397Z,23.98
2023-05-14T01:06:57.550Z,24.17
2023-05-14T01:09:29.313Z,23.95
2023-05-14T01:12:03.963Z,23.84
2023-05-14T01:14:37.160Z,23.48
2023-05-14T01:17:07.756Z,24.22
2023-05-14T01:19:37.271Z,24.70
2023-05-14T01:22:06.907Z,23.87
2023-05-14T01:24:35.306Z,23.74
2023-05-14T01:27:08.300Z,24.20
2023-05-14T01:29:38.919Z,24.51
2023-05-14T01:32:07.810Z,24.14
2023-05-14T01:34:37.733Z,24.10
2023-05-14T01:37:07.852Z,24.41
2023-05-14T01:39:38.814Z,24.31
2023-05-14T01:42:07.993Z,24.99
2023-05-14T01:44:36.717Z,25.28
2023-05-14T01:47:05.107Z,25.12
2023-05-14T01:49:33.385Z,23.85
2023-05-14T01:52:01.653Z,24.28
2023-05-14T01:54:31.203Z,25.19
2023-05-14T01:56:59.414Z,23.66
2023-05-14T01:59:29.804Z,24.39
2023-05-14T02:01:58.110Z,24.23
2023-05-14T02:04:26.537Z,23.67
2023-05-14T02:06:54.836Z,24.12
2023-05-14T02:09:23.186Z,24.69
2023-05-14T02:11:52.752Z,24.56
2023-05-14T02:14:20.969Z,23.71
2023-05-14T02:16:51.036Z,24.03
2023-05-14T02:19:20.214Z,24.27
2023-05-14T02:21:49.371Z,24.02
2023-05-14T02:24:17.642Z,24.43
2023-05-14T02:26:45.857Z,24.50
2023-05-14T02:29:15.448Z,24.71
2023-05-14T02:31:43.709Z,24.00
2023-05-14T02:34:12.036Z,24.25
2023-05-14T02:36:40.207Z,23.44
2023-05-14T02:39:08.458Z,23.92
2023-05-14T02:41:36.680Z,23.29
2023-05-14T02:44:05.006Z,24.24
2023-05-14T02:46:34.735Z,24.27
2023-05-14T02:49:03.275Z,23.91
2023-05-14T02:51:31.512Z,24.28
2023-05-14T02:53:59.758Z,24.74
2023-05-14T02:56:28.033Z,24.68
2023-05-14T02:58:56.205Z,24.30
2023-05-14T03:01:25.116Z,24.64
2023-05-14T03:03:55.314Z,24.09
2023-05-14T03:06:23.601Z,24.04
2023-05-14T03:08:51.892Z,24.53
2023-05-14T03:11:20.115Z,24.11
2023-05-14T03:13:48.393Z,24.44
2023-05-14T03:16:16.759Z,25.15
2023-05-14T03:18:45.132Z,24.30
2023-05-14T03:21:14.738Z,24.57
2023-05-14T03:23:42.957Z,24.42
2023-05-14T03:26:11.198Z,24.81
2023-05-14T03:28:39.427Z,25.12
2023-05-14T03:31:07.746Z,24.87
2023-05-14T03:33:36.192Z,24.76
2023-05-14T03:36:04.894Z,25.15
2023-05-14T03:38:34.460Z,24.81
2023-05-14T03:41:02.708Z,24.27
2023-05-14T03:43:30.915Z,24.44
2023-05-14T03:45:59.116Z,24.25
2023-05-14T03:48:27.456Z,24.59
2023-05-14T03:50:55.874Z,24.57
2023-05-14T03:53:24.140Z,24.53
2023-05-14T03:55:53.860Z,25.01
2023-05-14T03:58:22.057Z,24.54
2023-05-14T04:00:50.338Z,24.60
2023-05-14T04:03:18.682Z,24.46
2023-05-14T04:05:47.171Z,24.29
2023-05-14T04:08:15.455Z,24.85
2023-05-14T04:10:44.106Z,24.85
2023-05-14T04:13:13.746Z,25.17
2023-05-14T04:15:41.974Z,24.38
2023-05-14T04:18:10.260Z,24.13
2023-05-14T04:20:38.557Z,24.51
2023-05-14T04:23:06.822Z,24.31
2023-05-14T04:25:35.036Z,23.77
2023-05-14T04:28:03.398Z,23.63
2023-05-14T04:30:32.995Z,24.42
2023-05-14T04:33:01.313Z,23.59
2023-05-14T04:35:29.727Z,23.92
2023-05-14T04:37:57.950Z,24.30
2023-05-14T04:40:26.427Z,24.26
2023-05-14T04:42:54.975Z,25.11
2023-05-14T04:45:23.203Z,23.69
2023-05-14T04:47:52.825Z,24.25
2023-05-14T04:50:21.465Z,23.97
2023-05-14T04:52:49.885Z,23.38
2023-05-14T04:55:18.129Z,24.41
2023-05-14T04:57:46.478Z,24.65
2023-05-14T05:00:15.815Z,23.95
2023-05-14T05:02:44.158Z,25.17
2023-05-14T05:05:13.767Z,24.03
2023-05-14T05:07:42.039Z,24.46
2023-05-14T05:10:10.741Z,25.05
2023-05-14T05:12:39.099Z,24.53
2023-05-14T05:15:09.474Z,23.83
2023-05-14T05:17:38.116Z,24.24
2023-05-14T05:20:09.689Z,25.25
2023-05-14T05:22:39.273Z,23.73
2023-05-14T05:25:09.071Z,24.24
2023-05-14T05:27:37.368Z,24.21
2023-05-14T05:30:07.383Z,24.06
2023-05-14T05:32:36.213Z,24.26
2023-05-14T05:35:05.095Z,24.85
2023-05-14T05:37:33.473Z,25.18
2023-05-14T05:40:04.265Z,25.33
2023-05-14T05:42:32.503Z,25.03
2023-05-14T05:45:01.211Z,24.82
2023-05-14T05:47:30.129Z,24.87
2023-05-14T05:49:58.376Z,25.06
2023-05-14T05:52:26.703Z,24.57
2023-05-14T05:54:55.009Z,23.53
2023-05-14T05:57:27.045Z,24.33
2023-05-14T05:59:55.443Z,24.90
2023-05-14T06:02:25.138Z,23.49
2023-05-14T06:04:53.839Z,24.43
2023-05-14T06:07:22.091Z,24.89
2023-05-14T06:09:50.324Z,24.46
2023-05-14T06:12:18.570Z,24.44
2023-05-14T06:14:48.166Z,25.36
2023-05-14T06:17:16.401Z,24.87
2023-05-14T06:19:44.620Z,24.08
2023-05-14T06:22:12.906Z,24.92
2023-05-14T06:24:41.140Z,25.29
2023-05-14T06:27:09.524Z,24.41
2023-05-14T06:29:37.838Z,24.57
2023-05-14T06:32:08.767Z,24.64
2023-05-14T06:34:37.092Z,25.00
2023-05-14T06:37:07.064Z,25.16
2023-05-14T06:39:35.350Z,25.73
2023-05-14T06:42:03.596Z,25.91
2023-05-14T06:44:32.173Z,24.48
2023-05-14T06:47:00.344Z,25.93
2023-05-14T06:49:29.913Z,25.20
2023-05-14T06:51:58.172Z,23.81
2023-05-14T06:54:26.442Z,25.16
2023-05-14T06:56:54.662Z,24.51
2023-05-14T06:59:22.904Z,25.38
2023-05-14T07:01:51.304Z,26.22
2023-05-14T07:04:19.669Z,26.09
2023-05-14T07:06:49.257Z,25.39
2023-05-14T07:09:17.618Z,26.81
2023-05-14T07:11:45.903Z,26.25
2023-05-14T07:14:14.090Z,26.25
2023-05-14T07:16:42.793Z,26.73
2023-05-14T07:19:11.363Z,25.97
2023-05-14T07:21:39.704Z,26.25
2023-05-14T07:24:09.634Z,27.01
2023-05-14T07:26:37.851Z,27.23
2023-05-14T07:29:06.085Z,26.31
2023-05-14T07:31:34.887Z,26.39
2023-05-14T07:34:03.177Z,27.30
2023-05-14T07:36:31.576Z,26.93
2023-05-14T07:38:59.859Z,27.31
2023-05-14T07:41:29.493Z,26.65
2023-05-14T07:43:57.716Z,26.82
2023-05-14T07:46:25.953Z,26.28
2023-05-14T07:48:54.248Z,26.12
2023-05-14T07:51:23.020Z,26.24
2023-05-14T07:53:51.273Z,26.32
2023-05-14T07:56:20.011Z,26.59
2023-05-14T07:58:49.668Z,27.76
2023-05-14T08:01:17.947Z,27.38
2023-05-14T08:03:46.467Z,27.20
2023-05-14T08:06:14.827Z,27.47
2023-05-14T08:08:43.020Z,28.11
2023-05-14T08:11:11.266Z,28.42
2023-05-14T08:13:41.583Z,28.15
2023-05-14T08:16:11.340Z,29.08
2023-05-14T08:18:39.604Z,29.60
2023-05-14T08:21:07.812Z,28.42
2023-05-14T08:23:36.268Z,27.96
2023-05-14T08:26:04.527Z,29.13
2023-05-14T08:28:32.834Z,28.09
2023-05-14T08:31:01.143Z,28.46
2023-05-14T08:33:30.809Z,27.04
2023-05-14T08:36:00.615Z,27.18
2023-05-14T08:38:28.911Z,27.49
2023-05-14T08:40:58.557Z,27.07
2023-05-14T08:43:28.055Z,27.64
2023-05-14T08:46:00.096Z,26.10
2023-05-14T08:48:33.809Z,26.83
2023-05-14T08:51:02.966Z,26.55
2023-05-14T08:53:31.577Z,26.77
2023-05-14T08:56:02.088Z,27.50
2023-05-14T08:58:30.181Z,27.98
2023-05-14T09:00:58.437Z,28.25
2023-05-14T09:03:26.838Z,27.44
2023-05-14T09:05:58.615Z,27.22
2023-05-14T09:08:28.166Z,27.45
2023-05-14T09:10:56.400Z,27.75
2023-05-14T09:13:26.332Z,27.25
2023-05-14T09:15:56.234Z,27.06
2023-05-14T09:18:24.536Z,26.77
2023-05-14T09:20:53.119Z,25.99
2023-05-14T09:23:22.959Z,27.41
2023-05-14T09:25:51.150Z,27.38
2023-05-14T09:28:21.259Z,25.53
2023-05-14T09:30:52.668Z,27.12
2023-05-14T09:33:27.721Z,29.02
2023-05-14T09:35:59.270Z,28.31
2023-05-14T09:38:31.360Z,27.43
2023-05-14T09:41:00.150Z,27.11
2023-05-14T09:43:28.523Z,25.88
2023-05-14T09:45:56.791Z,27.57
2023-05-14T09:48:25.046Z,26.27
2023-05-14T09:50:53.499Z,25.92
2023-05-14T09:53:21.893Z,26.17
2023-05-14T09:55:51.583Z,27.25
2023-05-14T09:58:19.827Z,27.67
2023-05-14T10:00:48.544Z,26.70
2023-05-14T10:03:19.716Z,28.65
2023-05-14T10:05:50.296Z,25.76
2023-05-14T10:08:23.604Z,27.31
2023-05-14T10:10:55.412Z,28.12
2023-05-14T10:13:25.717Z,27.90
2023-05-14T10:15:58.746Z,27.77
2023-05-14T10:18:29.081Z,28.32
2023-05-14T10:21:04.957Z,28.45
2023-05-14T10:23:33.419Z,28.68
2023-05-14T10:26:03.187Z,28.28
2023-05-14T10:28:31.932Z,28.43
2023-05-14T10:31:01.014Z,27.16
2023-05-14T10:33:29.397Z,25.99
2023-05-14T10:36:00.932Z,28.99
2023-05-14T10:38:29.731Z,27.89
2023-05-14T10:41:00.062Z,27.10
2023-05-14T10:43:31.141Z,27.27
2023-05-14T10:45:59.901Z,29.24
2023-05-14T10:48:28.161Z,29.61
2023-05-14T10:50:57.786Z,27.95
2023-05-14T10:53:33.702Z,28.83
2023-05-14T10:56:05.796Z,28.98
2023-05-14T10:58:38.323Z,29.29
2023-05-14T11:01:07.463Z,28.99
2023-05-14T11:03:41.846Z,29.17
2023-05-14T11:06:10.961Z,29.68
2023-05-14T11:08:39.927Z,28.81
2023-05-14T11:11:09.522Z,29.20
2023-05-14T11:13:39.251Z,28.62
2023-05-14T11:18:41.735Z,29.51
2023-05-14T11:21:10.136Z,30.93
2023-05-14T11:23:38.668Z,30.44
2023-05-14T11:26:06.990Z,30.14
2023-05-14T11:28:35.673Z,30.09
2023-05-14T11:31:05.727Z,31.81
2023-05-14T11:33:33.952Z,30.73
2023-05-14T11:36:02.211Z,32.27
2023-05-14T11:38:30.436Z,30.78
2023-05-14T11:41:00.123Z,31.61
2023-05-14T11:43:29.403Z,33.85
2023-05-14T11:45:57.907Z,32.34
2023-05-14T11:48:27.537Z,32.72
2023-05-14T11:50:55.758Z,33.59
2023-05-14T11:53:27.370Z,34.48
2023-05-14T11:55:57.729Z,33.00
2023-05-14T11:58:26.369Z,34.94
2023-05-14T12:00:56.169Z,32.33
2023-05-14T12:03:26.394Z,32.99
2023-05-14T12:05:59.823Z,32.74
2023-05-14T12:08:29.167Z,32.47
2023-05-14T12:10:59.268Z,32.89
2023-05-14T12:13:28.111Z,33.70
2023-05-14T12:15:57.735Z,32.76
2023-05-14T12:18:26.451Z,32.55
2023-05-14T12:20:54.776Z,32.52
2023-05-14T12:23:27.802Z,32.57
2023-05-14T12:25:56.077Z,32.99
2023-05-14T12:28:24.573Z,33.05
2023-05-14T12:30:57.657Z,33.05
2023-05-14T12:33:27.078Z,33.51
2023-05-14T12:35:58.987Z,32.63
2023-05-14T12:38:30.222Z,33.04
2023-05-14T12:40:58.378Z,33.41
2023-05-14T12:43:31.436Z,33.42
2023-05-14T12:45:59.673Z,33.01
2023-05-14T12:48:27.881Z,33.54
2023-05-14T12:50:56.082Z,32.04
2023-05-14T12:53:24.296Z,32.60
2023-05-14T12:55:53.918Z,33.40
2023-05-14T12:58:22.085Z,33.53
2023-05-14T13:00:50.372Z,33.47
2023-05-14T13:03:18.800Z,33.22
2023-05-14T13:05:46.997Z,32.13
2023-05-14T13:08:17.748Z,32.83
2023-05-14T13:10:46.059Z,31.53
2023-05-14T13:13:16.579Z,29.91
2023-05-14T13:15:46.714Z,30.94
2023-05-14T13:18:15.076Z,32.65
2023-05-14T13:20:43.536Z,33.06
2023-05-14T13:23:11.742Z,33.01
2023-05-14T13:25:39.947Z,32.27
2023-05-14T13:28:09.647Z,31.89
2023-05-14T13:30:39.252Z,31.37
2023-05-14T13:33:07.596Z,32.33
2023-05-14T13:35:36.052Z,33.05
2023-05-14T13:38:04.509Z,31.76
2023-05-14T13:40:32.779Z,31.42
2023-05-14T13:43:01.038Z,32.15
2023-05-14T13:45:29.320Z,32.41
2023-05-14T13:47:59.473Z,32.29
2023-05-14T13:50:27.729Z,30.82
2023-05-14T13:52:55.966Z,31.11
2023-05-14T13:55:24.434Z,31.58
2023-05-14T13:57:52.888Z,29.60
2023-05-14T14:00:21.443Z,32.97
2023-05-14T14:02:49.674Z,34.02
2023-05-14T14:05:19.512Z,34.30
2023-05-14T14:07:49.818Z,33.62
2023-05-14T14:10:19.782Z,32.06
2023-05-14T14:12:48.236Z,32.89
2023-05-14T14:15:16.581Z,31.55
2023-05-14T14:17:44.796Z,33.52
2023-05-14T14:20:13.675Z,33.23
2023-05-14T14:22:44.378Z,33.29
2023-05-14T14:25:13.373Z,32.30
2023-05-14T14:27:41.850Z,33.60
2023-05-14T14:30:16.400Z,32.71
2023-05-14T14:32:45.427Z,32.08
2023-05-14T14:35:14.797Z,32.80
2023-05-14T14:37:48.571Z,31.33
2023-05-14T14:40:17.197Z,32.77
2023-05-14T14:42:45.617Z,32.79
2023-05-14T14:45:13.990Z,32.52
2023-05-14T14:47:44.850Z,32.58
2023-05-14T14:50:13.650Z,33.55
2023-05-14T14:52:45.417Z,33.48
2023-05-14T14:55:15.621Z,33.59
2023-05-14T14:57:43.869Z,33.67
2023-05-14T15:00:13.741Z,32.52
2023-05-14T15:02:43.083Z,34.22
2023-05-14T15:05:11.393Z,32.25
2023-05-14T15:07:39.584Z,33.09
2023-05-14T15:10:08.780Z,33.25
2023-05-14T15:12:38.388Z,28.84
2023-05-14T15:15:07.828Z,28.45
2023-05-14T15:17:36.093Z,26.51
2023-05-14T15:20:04.589Z,27.13
2023-05-14T15:22:32.917Z,27.14
2023-05-14T15:25:01.657Z,27.45
2023-05-14T15:27:29.898Z,26.60
2023-05-14T15:29:59.502Z,26.41
2023-05-14T15:32:28.450Z,24.37
2023-05-14T15:34:56.785Z,25.47
2023-05-14T15:37:25.390Z,24.36
2023-05-14T15:39:53.690Z,24.79
2023-05-14T15:42:21.984Z,23.65
2023-05-14T15:44:50.276Z,23.86
2023-05-14T15:47:19.884Z,24.15
2023-05-14T15:49:48.130Z,24.85
2023-05-14T15:52:16.345Z,23.72
2023-05-14T15:54:47.096Z,24.45
2023-05-14T15:57:16.918Z,24.94
2023-05-14T15:59:46.185Z,24.63
2023-05-14T16:02:15.437Z,23.90
2023-05-14T16:04:45.264Z,24.14
2023-05-14T16:07:13.535Z,24.25
2023-05-14T16:09:41.832Z,23.43
2023-05-14T16:12:10.271Z,23.69
2023-05-14T16:14:41.252Z,23.90
2023-05-14T16:17:10.175Z,23.74
2023-05-14T16:19:39.808Z,23.63
2023-05-14T16:22:09.481Z,23.83
2023-05-14T16:24:37.714Z,23.71
2023-05-14T16:27:06.415Z,22.47
2023-05-14T16:29:34.610Z,23.61
2023-05-14T16:32:03.014Z,23.96
2023-05-14T16:34:31.408Z,23.64
2023-05-14T16:37:00.697Z,23.88
2023-05-14T16:39:30.325Z,24.46
2023-05-14T16:41:58.562Z,24.23
2023-05-14T16:44:26.754Z,25.08
2023-05-14T16:46:55.006Z,24.73
2023-05-14T16:49:23.312Z,24.85
2023-05-14T16:51:51.552Z,23.63
2023-05-14T16:54:20.005Z,25.77
2023-05-14T16:56:49.619Z,25.77
2023-05-14T16:59:18.134Z,25.32
2023-05-14T17:01:47.940Z,25.49
2023-05-14T17:04:16.302Z,24.16
2023-05-14T17:06:44.628Z,25.54
2023-05-14T17:09:12.861Z,24.84
2023-05-14T17:11:41.148Z,24.75
2023-05-14T17:14:10.749Z,25.83
2023-05-14T17:16:40.556Z,25.75
2023-05-14T17:19:08.869Z,26.68
2023-05-14T17:21:37.353Z,25.53
2023-05-14T17:24:05.982Z,25.21
2023-05-14T17:26:34.321Z,25.45
2023-05-14T17:29:02.789Z,24.85
2023-05-14T17:31:32.404Z,25.94
2023-05-14T17:34:00.752Z,26.83
2023-05-14T17:36:29.431Z,27.09
2023-05-14T17:38:57.652Z,26.16
2023-05-14T17:41:25.887Z,25.29
2023-05-14T17:43:54.144Z,27.55
2023-05-14T17:46:22.367Z,26.59
2023-05-14T17:48:51.981Z,26.35
2023-05-14T17:51:20.208Z,25.27
2023-05-14T17:53:48.414Z,27.19
2023-05-14T17:56:18.544Z,27.57
2023-05-14T17:58:46.926Z,27.28
2023-05-14T18:01:15.248Z,27.53
2023-05-14T18:03:43.629Z,27.76
2023-05-14T18:06:13.390Z,27.93
2023-05-14T18:08:41.749Z,27.80
2023-05-14T18:11:10.013Z,28.09
2023-05-14T18:13:38.321Z,28.66
2023-05-14T18:16:06.760Z,28.18
2023-05-14T18:18:35.065Z,28.05
2023-05-14T18:21:03.607Z,28.11
2023-05-14T18:23:33.225Z,28.19
2023-05-14T18:26:01.498Z,27.50
2023-05-14T18:28:29.786Z,27.16
2023-05-14T18:30:58.067Z,27.57
2023-05-14T18:33:26.434Z,28.04
2023-05-14T18:35:54.672Z,27.69
2023-05-14T18:38:22.940Z,26.98
2023-05-14T18:40:52.660Z,27.21
2023-05-14T18:43:20.919Z,27.37
2023-05-14T18:45:49.186Z,26.84
2023-05-14T18:48:17.432Z,27.04
2023-05-14T18:50:45.656Z,27.51
2023-05-14T18:53:13.968Z,27.49
2023-05-14T18:55:42.187Z,27.08
2023-05-14T18:58:12.072Z,27.07
2023-05-14T19:00:40.305Z,27.28
2023-05-14T19:03:08.787Z,27.46
2023-05-14T19:05:37.124Z,27.39
2023-05-14T19:08:05.922Z,26.99
2023-05-14T19:10:34.785Z,27.34
2023-05-14T19:13:03.537Z,27.35
2023-05-14T19:15:33.229Z,27.44
2023-05-14T19:18:04.321Z,27.21
2023-05-14T19:20:32.548Z,27.42
2023-05-14T19:23:00.793Z,27.54
2023-05-14T19:25:29.250Z,27.11
2023-05-14T19:27:57.815Z,27.57
2023-05-14T19:30:26.053Z,27.44
2023-05-14T19:32:55.711Z,27.30
2023-05-14T19:35:24.276Z,27.24
2023-05-14T19:37:52.674Z,27.34
2023-05-14T19:40:21.001Z,27.56
2023-05-14T19:42:49.248Z,27.58
2023-05-14T19:45:17.784Z,27.54
2023-05-14T19:47:46.146Z,27.43
2023-05-14T19:50:15.826Z,27.40
2023-05-14T19:52:44.022Z,27.35
2023-05-14T19:55:12.251Z,27.48
2023-05-14T19:57:40.487Z,27.50
2023-05-14T20:00:10.516Z,27.56
2023-05-14T20:05:27.556Z,27.42
2023-05-14T20:07:55.901Z,27.59
2023-05-14T20:10:24.516Z,27.70
2023-05-14T20:12:52.800Z,27.66
2023-05-14T20:15:21.054Z,27.58
2023-05-14T20:17:49.445Z,27.62
2023-05-14T20:20:17.946Z,27.60
2023-05-14T20:22:47.565Z,27.56
2023-05-14T20:25:16.294Z,27.46
2023-05-14T20:27:44.627Z,27.50
2023-05-14T20:30:13.185Z,27.47
2023-05-14T20:32:41.438Z,27.49
2023-05-14T20:35:10.064Z,27.43
2023-05-14T20:37:38.312Z,27.40
2023-05-14T20:40:12.442Z,27.13
2023-05-14T20:42:40.763Z,27.36
2023-05-14T20:45:10.054Z,27.46
2023-05-14T20:47:38.429Z,27.30
2023-05-14T20:50:07.857Z,27.41
2023-05-14T20:52:36.146Z,27.44
2023-05-14T20:55:04.645Z,27.33
2023-05-14T20:57:34.361Z,27.20
2023-05-14T21:00:03.375Z,27.33
2023-05-14T21:02:31.697Z,26.72
2023-05-14T21:05:00.009Z,26.42
2023-05-14T21:07:29.002Z,26.50
2023-05-14T21:09:57.305Z,26.57
2023-05-14T21:12:25.566Z,26.64
2023-05-14T21:14:55.167Z,26.73
2023-05-14T21:17:23.434Z,26.67
2023-05-14T21:19:51.682Z,26.52
2023-05-14T21:22:19.948Z,26.57
2023-05-14T21:24:48.166Z,26.77
2023-05-14T21:27:16.370Z,26.81
2023-05-14T21:29:46.345Z,26.77
2023-05-14T21:32:15.994Z,26.92
2023-05-14T21:34:44.397Z,27.08
2023-05-14T21:37:12.767Z,27.16
2023-05-14T21:39:40.983Z,27.28
2023-05-14T21:42:10.189Z,27.37
2023-05-14T21:44:38.398Z,27.49
2023-05-14T21:47:07.018Z,27.65
2023-05-14T21:49:36.734Z,27.61
2023-05-14T21:52:05.545Z,27.58
2023-05-14T21:54:33.760Z,27.62
2023-05-14T21:57:02.572Z,27.53
2023-05-14T21:59:30.769Z,27.29
2023-05-14T22:04:30.124Z,27.25
2023-05-14T22:06:59.711Z,27.22
2023-05-14T22:09:27.931Z,27.24
2023-05-14T22:11:56.203Z,27.35
2023-05-14T22:14:26.464Z,27.20
2023-05-14T22:16:54.737Z,27.20
2023-05-14T22:19:23.079Z,27.04
2023-05-14T22:21:51.301Z,26.89
2023-05-14T22:24:20.874Z,26.93
2023-05-14T22:26:49.099Z,26.95
2023-05-14T22:29:17.344Z,26.44
2023-05-14T22:31:45.757Z,26.81
2023-05-14T22:34:13.991Z,26.76
2023-05-14T22:36:42.354Z,26.58
2023-05-14T22:39:12.694Z,26.36
2023-05-14T22:41:43.179Z,26.15
2023-05-14T22:44:11.426Z,26.38
2023-05-14T22:46:39.719Z,26.74
2023-05-14T22:49:07.980Z,26.78
2023-05-14T22:51:36.214Z,26.73
2023-05-14T22:54:04.551Z,26.59
2023-05-14T22:56:33.173Z,26.56
2023-05-14T22:59:02.758Z,26.74
2023-05-14T23:01:32.412Z,26.60
2023-05-14T23:04:00.700Z,26.75
2023-05-14T23:06:29.101Z,26.65
2023-05-14T23:08:57.419Z,26.41
2023-05-14T23:11:27.006Z,26.06
2023-05-14T23:13:55.746Z,25.52
2023-05-14T23:16:25.961Z,25.99
2023-05-14T23:18:54.495Z,25.32
2023-05-14T23:21:23.160Z,25.90
2023-05-14T23:23:51.370Z,25.86
2023-05-14T23:26:19.645Z,26.17
2023-05-14T23:28:48.251Z,26.32
2023-05-14T23:31:16.556Z,25.80
2023-05-14T23:33:46.713Z,25.70
2023-05-14T23:36:14.986Z,25.93
2023-05-14T23:38:43.244Z,25.84
2023-05-14T23:41:11.485Z,25.36
2023-05-14T23:43:39.842Z,24.95
2023-05-14T23:46:08.822Z,24.83
2023-05-14T23:48:37.123Z,25.53
2023-05-14T23:51:06.748Z,24.66
2023-05-14T23:53:35.059Z,24.77
2023-05-14T23:56:03.380Z,24.00
2023-05-14T23:58:32.935Z,24.59
